createdAt,value
2019-02-15T04:00:28.454Z,102852.88
2019-02-15T04:01:35.978Z,102850.36
2019-02-15T04:02:42.992Z,102849.47
2019-02-15T04:03:49.881Z,102852.88
2019-02-15T04:04:56.612Z,102848.27
2019-02-15T04:06:03.588Z,102850.73
2019-02-15T04:07:10.309Z,102850.28
2019-02-15T04:08:17.469Z,102851.47
2019-02-15T04:09:24.159Z,102851.73
2019-02-15T04:10:30.931Z,102853.14
2019-02-15T04:11:38.204Z,102846.67
2019-02-15T04:12:44.894Z,102853.14
2019-02-15T04:13:52.346Z,102853.33
2019-02-15T04:15:02.205Z,102853.25
2019-02-15T04:16:09.297Z,102848.16
2019-02-15T04:17:16.241Z,102855.33
2019-02-15T04:18:23.256Z,102850.20
2019-02-15T04:19:30.376Z,102852.80
2019-02-15T04:20:37.305Z,102857.78
2019-02-15T04:21:43.976Z,102851.32
2019-02-15T04:22:51.234Z,102853.52
2019-02-15T04:23:57.953Z,102850.98
2019-02-15T04:25:04.707Z,102851.62
2019-02-15T04:26:11.440Z,102844.41
2019-02-15T04:27:18.519Z,102848.27
2019-02-15T04:28:27.327Z,102856.78
2019-02-15T04:29:34.422Z,102854.33
2019-02-15T04:30:41.118Z,102858.67
2019-02-15T04:31:48.375Z,102853.69
2019-02-15T04:32:55.508Z,102854.47
2019-02-15T04:34:02.305Z,102853.95
2019-02-15T04:35:09.865Z,102852.20
2019-02-15T04:36:16.868Z,102848.34
2019-02-15T04:37:23.922Z,102847.75
2019-02-15T04:38:31.416Z,102847.27
2019-02-15T04:39:38.089Z,102848.53
2019-02-15T04:40:45.171Z,102850.62
2019-02-15T04:41:51.878Z,102850.06
2019-02-15T04:43:00.958Z,102859.05
2019-02-15T04:44:08.847Z,102854.00
2019-02-15T04:45:15.540Z,102856.64
2019-02-15T04:46:22.377Z,102854.04
2019-02-15T04:47:29.469Z,102851.58
2019-02-15T04:48:36.382Z,102851.73
2019-02-15T04:49:43.762Z,102850.92
2019-02-15T04:50:50.461Z,102845.94
2019-02-15T04:51:58.252Z,102850.14
2019-02-15T04:53:06.185Z,102848.47
2019-02-15T04:54:12.953Z,102843.00
2019-02-15T04:55:19.760Z,102848.20
2019-02-15T04:56:26.459Z,102852.33
2019-02-15T04:57:33.756Z,102846.80
2019-02-15T04:58:41.486Z,102843.41
2019-02-15T04:59:48.486Z,102843.52
2019-02-15T05:00:55.193Z,102842.74
2019-02-15T05:02:02.369Z,102846.87
2019-02-15T05:03:09.219Z,102847.20
2019-02-15T05:04:16.386Z,102845.01
2019-02-15T05:05:23.419Z,102841.93
2019-02-15T05:06:30.595Z,102845.79
2019-02-15T05:07:37.341Z,102848.84
2019-02-15T05:08:44.004Z,102848.84
2019-02-15T05:09:50.961Z,102852.95
2019-02-15T05:10:57.695Z,102845.86
2019-02-15T05:12:06.138Z,102848.72
2019-02-15T05:13:13.191Z,102848.91
2019-02-15T05:14:20.251Z,102848.20
2019-02-15T05:15:27.124Z,102849.13
2019-02-15T05:16:34.241Z,102849.98
2019-02-15T05:17:40.978Z,102846.61
2019-02-15T05:18:48.173Z,102848.80
2019-02-15T05:19:55.235Z,102851.84
2019-02-15T05:21:02.363Z,102850.06
2019-02-15T05:22:10.336Z,102854.63
2019-02-15T05:23:17.075Z,102850.39
2019-02-15T05:24:23.775Z,102847.88
2019-02-15T05:25:30.688Z,102852.92
2019-02-15T05:26:38.188Z,102853.63
2019-02-15T05:27:45.155Z,102846.27
2019-02-15T05:28:52.199Z,102849.91
2019-02-15T05:29:58.927Z,102850.51
2019-02-15T05:31:05.965Z,102853.18
2019-02-15T05:32:12.749Z,102846.87
2019-02-15T05:33:19.431Z,102850.73
2019-02-15T05:34:27.184Z,102842.27
2019-02-15T05:35:34.053Z,102842.41
2019-02-15T05:36:41.440Z,102845.27
2019-02-15T05:39:20.652Z,102841.00
2019-02-15T05:40:27.339Z,102847.80
2019-02-15T05:41:34.144Z,102847.02
2019-02-15T05:42:41.109Z,102840.70
2019-02-15T05:43:48.172Z,102837.36
2019-02-15T05:45:03.360Z,102841.22
2019-02-15T05:46:04.089Z,102845.01
2019-02-15T05:47:11.202Z,102840.89
2019-02-15T05:48:17.903Z,102836.77
2019-02-15T05:49:24.965Z,102848.20
2019-02-15T05:50:32.142Z,102841.37
2019-02-15T05:51:38.819Z,102842.63
2019-02-15T05:52:45.879Z,102843.89
2019-02-15T05:53:52.650Z,102841.81
2019-02-15T05:54:59.395Z,102841.11
2019-02-15T05:56:06.212Z,102837.69
2019-02-15T05:57:13.285Z,102844.08
2019-02-15T05:58:20.341Z,102841.70
2019-02-15T05:59:27.066Z,102846.01
2019-02-15T06:00:37.066Z,102843.97
2019-02-15T06:01:42.596Z,102848.68
2019-02-15T06:02:50.057Z,102841.44
2019-02-15T06:03:56.767Z,102843.63
2019-02-15T06:05:07.548Z,102839.77
2019-02-15T06:06:14.310Z,102838.50
2019-02-15T06:07:21.436Z,102841.03
2019-02-15T06:08:28.377Z,102844.41
2019-02-15T06:09:35.223Z,102847.75
2019-02-15T06:10:41.919Z,102839.62
2019-02-15T06:11:48.601Z,102841.88
2019-02-15T06:12:55.294Z,102838.98
2019-02-15T06:14:02.081Z,102837.23
2019-02-15T06:15:15.166Z,102837.83
2019-02-15T06:16:17.329Z,102836.64
2019-02-15T06:17:23.989Z,102837.19
2019-02-15T06:18:31.058Z,102836.30
2019-02-15T06:19:38.177Z,102839.23
2019-02-15T06:20:45.284Z,102840.50
2019-02-15T06:21:52.366Z,102839.09
2019-02-15T06:22:59.057Z,102841.51
2019-02-15T06:24:05.857Z,102847.75
2019-02-15T06:25:12.997Z,102843.41
2019-02-15T06:26:20.082Z,102836.45
2019-02-15T06:27:26.757Z,102837.45
2019-02-15T06:28:33.501Z,102840.45
2019-02-15T06:29:40.289Z,102840.56
2019-02-15T06:30:46.989Z,102842.16
2019-02-15T06:31:55.075Z,102837.00
2019-02-15T06:33:01.833Z,102839.12
2019-02-15T06:34:09.044Z,102838.83
2019-02-15T06:35:16.089Z,102842.91
2019-02-15T06:36:23.394Z,102840.31
2019-02-15T06:37:30.119Z,102841.36
2019-02-15T06:38:37.574Z,102842.58
2019-02-15T06:39:44.369Z,102841.62
2019-02-15T06:40:51.050Z,102847.67
2019-02-15T06:41:58.065Z,102848.94
2019-02-15T06:43:04.984Z,102848.34
2019-02-15T06:44:11.749Z,102846.75
2019-02-15T06:45:24.740Z,102849.01
2019-02-15T06:46:27.551Z,102847.67
2019-02-15T06:47:34.574Z,102847.48
2019-02-15T06:48:41.304Z,102848.81
2019-02-15T06:49:48.158Z,102853.35
2019-02-15T06:50:55.125Z,102851.88
2019-02-15T06:52:01.929Z,102852.47
2019-02-15T06:53:10.036Z,102852.95
2019-02-15T06:54:17.098Z,102852.14
2019-02-15T06:55:24.179Z,102847.56
2019-02-15T06:56:30.940Z,102847.83
2019-02-15T06:57:37.716Z,102851.28
2019-02-15T06:58:59.509Z,102850.09
2019-02-15T07:00:29.948Z,102851.42
2019-02-15T07:01:58.635Z,102852.28
2019-02-15T07:03:33.473Z,102852.69
2019-02-15T07:04:50.198Z,102852.69
2019-02-15T07:05:56.892Z,102849.20
2019-02-15T07:07:04.360Z,102850.83
2019-02-15T07:08:12.125Z,102849.67
2019-02-15T07:09:19.198Z,102850.16
2019-02-15T07:10:25.869Z,102857.06
2019-02-15T07:11:32.585Z,102854.20
2019-02-15T07:12:39.611Z,102857.28
2019-02-15T07:13:46.359Z,102855.67
2019-02-15T07:14:53.429Z,102857.34
2019-02-15T07:16:00.685Z,102855.46
2019-02-15T07:17:08.273Z,102862.86
2019-02-15T07:18:14.961Z,102867.51
2019-02-15T07:19:21.753Z,102868.38
2019-02-15T07:20:29.194Z,102867.85
2019-02-15T07:21:35.937Z,102865.03
2019-02-15T07:22:42.611Z,102868.11
2019-02-15T07:23:49.641Z,102864.59
2019-02-15T07:24:56.636Z,102867.89
2019-02-15T07:26:03.680Z,102862.06
2019-02-15T07:27:11.266Z,102862.58
2019-02-15T07:28:17.936Z,102861.39
2019-02-15T07:29:25.007Z,102867.11
2019-02-15T07:30:32.355Z,102871.48
2019-02-15T07:31:39.133Z,102865.31
2019-02-15T07:32:45.994Z,102870.55
2019-02-15T07:33:52.746Z,102871.11
2019-02-15T07:34:59.475Z,102871.29
2019-02-15T07:36:06.620Z,102864.26
2019-02-15T07:37:13.313Z,102864.91
2019-02-15T07:38:20.406Z,102872.30
2019-02-15T07:39:29.362Z,102867.69
2019-02-15T07:40:36.474Z,102865.89
2019-02-15T07:41:43.444Z,102867.78
2019-02-15T07:42:50.603Z,102864.16
2019-02-15T07:43:57.275Z,102865.70
2019-02-15T07:45:04.356Z,102865.44
2019-02-15T07:46:11.344Z,102863.93
2019-02-15T07:47:18.446Z,102860.80
2019-02-15T07:48:25.489Z,102859.39
2019-02-15T07:49:32.223Z,102857.92
2019-02-15T07:50:38.966Z,102864.03
2019-02-15T07:51:45.779Z,102860.89
2019-02-15T07:52:52.429Z,102858.52
2019-02-15T07:53:59.166Z,102852.81
2019-02-15T07:55:06.908Z,102855.57
2019-02-15T07:56:13.641Z,102853.23
2019-02-15T07:57:20.700Z,102849.61
2019-02-15T07:58:27.752Z,102858.73
2019-02-15T07:59:34.843Z,102854.23
2019-02-15T08:00:42.212Z,102855.80
2019-02-15T08:01:49.114Z,102859.84
2019-02-15T08:02:55.799Z,102856.69
2019-02-15T08:04:02.594Z,102858.17
2019-02-15T08:05:09.938Z,102859.95
2019-02-15T08:06:16.639Z,102850.48
2019-02-15T08:07:23.711Z,102849.43
2019-02-15T08:08:30.450Z,102846.32
2019-02-15T08:09:37.158Z,102847.42
2019-02-15T08:10:44.185Z,102847.28
2019-02-15T08:11:50.870Z,102847.55
2019-02-15T08:12:57.909Z,102850.83
2019-02-15T08:14:04.704Z,102847.77
2019-02-15T08:15:12.200Z,102841.31
2019-02-15T08:16:19.313Z,102848.89
2019-02-15T08:17:25.985Z,102842.02
2019-02-15T08:18:32.738Z,102843.67
2019-02-15T08:19:39.494Z,102850.06
2019-02-15T08:20:46.147Z,102845.73
2019-02-15T08:21:53.209Z,102844.45
2019-02-15T08:23:00.437Z,102840.58
2019-02-15T08:24:07.196Z,102840.55
2019-02-15T08:25:13.868Z,102846.72
2019-02-15T08:26:20.538Z,102846.20
2019-02-15T08:27:27.575Z,102844.84
2019-02-15T08:28:34.674Z,102842.59
2019-02-15T08:29:41.356Z,102845.02
2019-02-15T08:30:48.082Z,102845.09
2019-02-15T08:31:55.187Z,102844.92
2019-02-15T08:33:02.366Z,102845.09
2019-02-15T08:34:09.457Z,102846.95
2019-02-15T08:35:16.630Z,102842.80
2019-02-15T08:36:23.613Z,102841.91
2019-02-15T08:37:30.293Z,102849.16
2019-02-15T08:38:37.369Z,102845.36
2019-02-15T08:39:44.049Z,102850.13
2019-02-15T08:40:51.407Z,102844.77
2019-02-15T08:42:04.378Z,102841.79
2019-02-15T08:43:06.894Z,102843.63
2019-02-15T08:44:13.556Z,102843.67
2019-02-15T08:45:20.231Z,102842.47
2019-02-15T08:46:26.955Z,102844.52
2019-02-15T08:47:34.061Z,102835.26
2019-02-15T08:48:46.141Z,102844.35
2019-02-15T08:49:50.015Z,102853.73
2019-02-15T08:50:56.695Z,102846.20
2019-02-15T08:52:03.843Z,102848.80
2019-02-15T08:53:10.982Z,102847.21
2019-02-15T08:54:17.991Z,102837.13
2019-02-15T08:55:25.027Z,102838.87
2019-02-15T08:56:32.405Z,102843.31
2019-02-15T08:57:39.328Z,102835.41
2019-02-15T08:58:46.303Z,102841.58
2019-02-15T08:59:53.046Z,102840.50
2019-02-15T09:00:59.756Z,102841.69
2019-02-15T09:02:25.104Z,102841.49
2019-02-15T09:03:32.333Z,102842.70
2019-02-15T09:04:38.992Z,102843.52
2019-02-15T09:05:46.094Z,102845.20
2019-02-15T09:06:52.739Z,102846.55
2019-02-15T09:07:59.486Z,102847.87
2019-02-15T09:09:07.107Z,102844.13
2019-02-15T09:10:14.406Z,102847.27
2019-02-15T09:11:21.416Z,102848.50
2019-02-15T09:12:28.164Z,102847.63
2019-02-15T09:13:35.229Z,102841.45
2019-02-15T09:14:42.395Z,102841.40
2019-02-15T09:15:49.438Z,102838.72
2019-02-15T09:16:56.588Z,102840.42
2019-02-15T09:18:03.678Z,102838.97
2019-02-15T09:19:11.114Z,102840.56
2019-02-15T09:20:17.867Z,102837.86
2019-02-15T09:21:24.576Z,102845.39
2019-02-15T09:22:31.681Z,102838.73
2019-02-15T09:23:38.704Z,102835.06
2019-02-15T09:24:46.014Z,102842.48
2019-02-15T09:25:52.923Z,102831.53
2019-02-15T09:27:02.239Z,102837.59
2019-02-15T09:28:26.799Z,102843.16
2019-02-15T09:29:33.875Z,102841.82
2019-02-15T09:30:40.705Z,102839.63
2019-02-15T09:31:47.573Z,102841.21
2019-02-15T09:32:54.319Z,102835.22
2019-02-15T09:34:01.035Z,102843.28
2019-02-15T09:35:08.853Z,102839.05
2019-02-15T09:36:15.517Z,102840.36
2019-02-15T09:37:22.690Z,102835.95
2019-02-15T09:38:29.728Z,102836.70
2019-02-15T09:39:36.783Z,102835.03
2019-02-15T09:40:43.731Z,102842.83
2019-02-15T09:41:51.107Z,102839.94
2019-02-15T09:42:57.812Z,102833.55
2019-02-15T09:44:04.518Z,102840.23
2019-02-15T09:45:12.931Z,102837.72
2019-02-15T09:46:20.434Z,102840.30
2019-02-15T09:47:27.277Z,102835.65
2019-02-15T09:48:34.438Z,102833.27
2019-02-15T09:49:42.755Z,102844.03
2019-02-15T09:50:50.242Z,102838.08
2019-02-15T09:51:57.295Z,102836.80
2019-02-15T09:53:04.074Z,102831.02
2019-02-15T09:54:10.793Z,102837.47
2019-02-15T09:55:17.420Z,102831.56
2019-02-15T09:56:24.175Z,102836.67
2019-02-15T09:57:31.783Z,102835.15
2019-02-15T09:58:38.801Z,102838.64
2019-02-15T09:59:45.470Z,102833.63
2019-02-15T10:00:52.475Z,102839.19
2019-02-15T10:01:59.552Z,102829.92
2019-02-15T10:03:06.844Z,102836.84
2019-02-15T10:04:13.919Z,102836.13
2019-02-15T10:05:20.595Z,102835.28
2019-02-15T10:06:27.699Z,102832.77
2019-02-15T10:07:34.552Z,102836.29
2019-02-15T10:08:41.641Z,102836.66
2019-02-15T10:09:48.291Z,102832.47
2019-02-15T10:10:54.955Z,102835.98
2019-02-15T10:12:02.056Z,102839.95
2019-02-15T10:13:09.095Z,102838.73
2019-02-15T10:14:15.847Z,102840.54
2019-02-15T10:15:22.638Z,102841.05
2019-02-15T10:16:31.388Z,102836.02
2019-02-15T10:17:38.478Z,102834.41
2019-02-15T10:18:45.137Z,102829.86
2019-02-15T10:19:52.147Z,102831.23
2019-02-15T10:20:59.468Z,102827.91
2019-02-15T10:22:06.487Z,102824.58
2019-02-15T10:23:13.513Z,102825.08
2019-02-15T10:24:20.250Z,102827.16
2019-02-15T10:25:26.955Z,102821.67
2019-02-15T10:26:33.762Z,102827.72
2019-02-15T10:27:40.968Z,102823.52
2019-02-15T10:28:47.630Z,102828.72
2019-02-15T10:29:54.322Z,102828.38
2019-02-15T10:31:01.945Z,102827.14
2019-02-15T10:32:08.707Z,102827.98
2019-02-15T10:33:15.457Z,102832.27
2019-02-15T10:34:22.108Z,102824.19
2019-02-15T10:35:28.884Z,102825.07
2019-02-15T10:36:40.718Z,102823.37
2019-02-15T10:37:47.706Z,102828.11
2019-02-15T10:38:55.689Z,102828.63
2019-02-15T10:40:03.086Z,102828.70
2019-02-15T10:41:10.096Z,102832.13
2019-02-15T10:42:16.765Z,102830.47
2019-02-15T10:43:23.824Z,102827.97
2019-02-15T10:44:30.741Z,102828.88
2019-02-15T10:45:37.897Z,102829.78
2019-02-15T10:46:44.921Z,102824.70
2019-02-15T10:47:51.645Z,102823.91
2019-02-15T10:48:58.661Z,102822.23
2019-02-15T10:50:06.005Z,102818.86
2019-02-15T10:51:12.923Z,102813.36
2019-02-15T10:52:19.620Z,102821.12
2019-02-15T10:53:26.397Z,102820.30
2019-02-15T10:54:33.448Z,102816.01
2019-02-15T10:55:40.423Z,102813.00
2019-02-15T10:56:47.463Z,102815.12
2019-02-15T10:57:54.142Z,102814.73
2019-02-15T10:59:01.178Z,102813.89
2019-02-15T11:00:13.373Z,102811.80
2019-02-15T11:01:20.132Z,102811.80
2019-02-15T11:02:27.621Z,102813.13
2019-02-15T11:03:36.601Z,102808.84
2019-02-15T11:04:43.240Z,102808.45
2019-02-15T11:05:50.258Z,102807.59
2019-02-15T11:06:56.946Z,102804.16
2019-02-15T11:08:04.011Z,102802.91
2019-02-15T11:09:13.730Z,102804.17
2019-02-15T11:10:20.724Z,102802.48
2019-02-15T11:11:27.943Z,102804.20
2019-02-15T11:12:35.145Z,102798.64
2019-02-15T11:13:42.198Z,102797.78
2019-02-15T11:14:49.282Z,102796.49
2019-02-15T11:15:55.967Z,102796.48
2019-02-15T11:17:03.257Z,102793.08
2019-02-15T11:18:10.512Z,102794.80
2019-02-15T11:19:17.600Z,102795.23
2019-02-15T11:20:25.023Z,102790.52
2019-02-15T11:21:32.566Z,102783.66
2019-02-15T11:22:39.245Z,102793.95
2019-02-15T11:23:45.908Z,102790.09
2019-02-15T11:24:52.943Z,102786.70
2019-02-15T11:25:59.647Z,102796.11
2019-02-15T11:27:06.355Z,102786.25
2019-02-15T11:28:13.077Z,102789.23
2019-02-15T11:29:20.207Z,102781.95
2019-02-15T11:30:26.931Z,102788.80
2019-02-15T11:31:34.021Z,102784.55
2019-02-15T11:32:40.937Z,102781.55
2019-02-15T11:33:47.616Z,102773.83
2019-02-15T11:34:54.295Z,102778.55
2019-02-15T11:36:01.605Z,102776.38
2019-02-15T11:37:08.291Z,102775.09
2019-02-15T11:38:15.125Z,102772.11
2019-02-15T11:39:21.847Z,102770.80
2019-02-15T11:40:28.856Z,102771.22
2019-02-15T11:41:35.570Z,102773.77
2019-02-15T11:42:42.332Z,102762.16
2019-02-15T11:43:49.131Z,102768.16
2019-02-15T11:44:56.151Z,102768.53
2019-02-15T11:46:03.075Z,102766.36
2019-02-15T11:47:09.809Z,102762.90
2019-02-15T11:48:16.914Z,102759.92
2019-02-15T11:49:23.632Z,102756.06
2019-02-15T11:50:30.398Z,102753.88
2019-02-15T11:51:37.370Z,102751.66
2019-02-15T11:52:44.027Z,102755.52
2019-02-15T11:53:50.803Z,102751.61
2019-02-15T11:54:57.811Z,102751.59
2019-02-15T11:56:04.792Z,102754.12
2019-02-15T11:57:11.913Z,102749.36
2019-02-15T11:58:18.568Z,102748.94
2019-02-15T11:59:25.773Z,102749.31
2019-02-15T12:00:34.355Z,102743.27
2019-02-15T12:01:41.043Z,102743.20
2019-02-15T12:02:47.748Z,102742.79
2019-02-15T12:03:54.854Z,102737.12
2019-02-15T12:05:01.779Z,102736.28
2019-02-15T12:06:08.441Z,102737.20
2019-02-15T12:07:15.445Z,102737.64
2019-02-15T12:08:22.897Z,102730.75
2019-02-15T12:09:30.000Z,102735.00
2019-02-15T12:10:36.910Z,102728.92
2019-02-15T12:11:43.858Z,102731.41
2019-02-15T12:12:51.261Z,102732.62
2019-02-15T12:13:57.984Z,102726.98
2019-02-15T12:15:04.761Z,102730.41
2019-02-15T12:16:11.474Z,102717.96
2019-02-15T12:17:18.477Z,102727.76
2019-02-15T12:18:26.092Z,102723.85
2019-02-15T12:19:32.811Z,102722.03
2019-02-15T12:20:39.593Z,102722.40
2019-02-15T12:21:46.277Z,102719.80
2019-02-15T12:22:52.943Z,102719.31
2019-02-15T12:23:59.758Z,102717.58
2019-02-15T12:25:06.914Z,102716.02
2019-02-15T12:26:13.622Z,102712.13
2019-02-15T12:27:20.453Z,102705.30
2019-02-15T12:28:27.526Z,102715.19
2019-02-15T12:29:34.595Z,102710.38
2019-02-15T12:30:41.337Z,102713.27
2019-02-15T12:31:48.462Z,102716.30
2019-02-15T12:32:55.128Z,102706.88
2019-02-15T12:34:02.152Z,102708.06
2019-02-15T12:35:11.086Z,102702.44
2019-02-15T12:36:17.819Z,102703.27
2019-02-15T12:37:24.512Z,102695.88
2019-02-15T12:38:31.604Z,102693.28
2019-02-15T12:39:38.852Z,102693.30
2019-02-15T12:40:46.284Z,102692.02
2019-02-15T12:41:52.950Z,102690.66
2019-02-15T12:42:59.620Z,102691.19
2019-02-15T12:44:06.662Z,102698.09
2019-02-15T12:45:13.651Z,102695.59
2019-02-15T12:46:20.341Z,102691.75
2019-02-15T12:47:27.415Z,102688.34
2019-02-15T12:48:34.182Z,102689.15
2019-02-15T12:49:40.884Z,102683.09
2019-02-15T12:50:47.591Z,102683.19
2019-02-15T12:51:54.732Z,102681.51
2019-02-15T12:53:01.780Z,102677.19
2019-02-15T12:54:08.482Z,102681.05
2019-02-15T12:55:15.172Z,102669.81
2019-02-15T12:56:21.897Z,102669.81
2019-02-15T12:57:28.823Z,102665.49
2019-02-15T12:58:36.240Z,102671.91
2019-02-15T12:59:42.927Z,102671.44
2019-02-15T13:00:49.984Z,102672.66
2019-02-15T13:01:56.749Z,102673.03
2019-02-15T13:03:03.488Z,102665.28
2019-02-15T13:04:10.178Z,102666.58
2019-02-15T13:05:16.897Z,102661.36
2019-02-15T13:06:28.776Z,102666.43
2019-02-15T13:07:32.223Z,102667.70
2019-02-15T13:08:38.895Z,102666.29
2019-02-15T13:09:45.594Z,102659.03
2019-02-15T13:10:52.292Z,102656.41
2019-02-15T13:11:59.020Z,102659.02
2019-02-15T13:13:06.038Z,102658.17
2019-02-15T13:14:13.426Z,102653.82
2019-02-15T13:15:20.095Z,102655.50
2019-02-15T13:16:27.161Z,102657.59
2019-02-15T13:17:33.896Z,102653.25
2019-02-15T13:18:40.629Z,102655.83
2019-02-15T13:19:47.385Z,102657.97
2019-02-15T13:20:54.086Z,102654.09
2019-02-15T13:22:01.166Z,102650.18
2019-02-15T13:23:07.914Z,102647.13
2019-02-15T13:24:14.621Z,102646.52
2019-02-15T13:25:21.469Z,102643.97
2019-02-15T13:26:28.325Z,102642.73
2019-02-15T13:27:35.122Z,102645.73
2019-02-15T13:28:41.819Z,102640.09
2019-02-15T13:29:49.237Z,102636.95
2019-02-15T13:30:56.043Z,102633.42
2019-02-15T13:32:03.854Z,102632.56
2019-02-15T13:33:11.348Z,102633.47
2019-02-15T13:34:18.163Z,102637.77
2019-02-15T13:35:25.081Z,102636.90
2019-02-15T13:36:32.187Z,102627.36
2019-02-15T13:37:39.298Z,102626.89
2019-02-15T13:38:46.690Z,102624.20
2019-02-15T13:39:53.791Z,102626.75
2019-02-15T13:41:00.530Z,102621.22
2019-02-15T13:42:07.249Z,102616.11
2019-02-15T13:43:14.214Z,102616.05
2019-02-15T13:44:21.702Z,102618.16
2019-02-15T13:45:29.563Z,102616.38
2019-02-15T13:46:36.394Z,102614.21
2019-02-15T13:47:43.638Z,102603.81
2019-02-15T13:48:50.735Z,102605.50
2019-02-15T13:49:57.499Z,102603.37
2019-02-15T13:51:04.207Z,102605.23
2019-02-15T13:52:10.913Z,102597.09
2019-02-15T13:53:17.999Z,102598.02
2019-02-15T13:54:25.135Z,102599.35
2019-02-15T13:55:32.025Z,102596.28
2019-02-15T13:56:40.507Z,102596.01
2019-02-15T13:57:47.327Z,102590.52
2019-02-15T13:58:54.714Z,102591.27
2019-02-15T14:00:01.411Z,102589.56
2019-02-15T14:01:08.126Z,102590.86
2019-02-15T14:02:14.894Z,102588.69
2019-02-15T14:03:21.625Z,102584.40
2019-02-15T14:04:28.837Z,102580.67
2019-02-15T14:05:35.524Z,102581.23
2019-02-15T14:06:42.471Z,102581.67
2019-02-15T14:07:49.189Z,102579.88
2019-02-15T14:08:55.848Z,102580.72
2019-02-15T14:10:02.549Z,102577.68
2019-02-15T14:11:09.416Z,102571.66
2019-02-15T14:12:16.533Z,102573.86
2019-02-15T14:13:23.221Z,102571.36
2019-02-15T14:14:30.522Z,102575.31
2019-02-15T14:15:37.273Z,102571.80
2019-02-15T14:16:44.372Z,102562.73
2019-02-15T14:17:51.070Z,102565.34
2019-02-15T14:18:58.038Z,102564.48
2019-02-15T14:20:06.093Z,102562.31
2019-02-15T14:21:12.784Z,102559.80
2019-02-15T14:22:19.478Z,102561.98
2019-02-15T14:23:26.606Z,102557.23
2019-02-15T14:24:33.363Z,102559.84
2019-02-15T14:25:40.376Z,102559.02
2019-02-15T14:26:47.321Z,102555.53
2019-02-15T14:27:54.351Z,102558.20
2019-02-15T14:29:01.307Z,102558.67
2019-02-15T14:30:09.769Z,102551.33
2019-02-15T14:31:17.100Z,102554.33
2019-02-15T14:32:23.754Z,102557.37
2019-02-15T14:33:30.501Z,102549.26
2019-02-15T14:34:37.586Z,102553.98
2019-02-15T14:35:44.673Z,102557.00
2019-02-15T14:36:51.789Z,102548.81
2019-02-15T14:38:00.986Z,102554.41
2019-02-15T14:39:11.898Z,102553.11
2019-02-15T14:40:18.951Z,102551.39
2019-02-15T14:41:25.798Z,102550.55
2019-02-15T14:42:32.639Z,102548.81
2019-02-15T14:43:39.338Z,102544.97
2019-02-15T14:44:46.027Z,102547.56
2019-02-15T14:45:53.384Z,102539.01
2019-02-15T14:47:00.080Z,102546.27
2019-02-15T14:48:06.819Z,102539.80
2019-02-15T14:49:13.494Z,102541.91
2019-02-15T14:50:20.175Z,102541.52
2019-02-15T14:51:26.862Z,102535.92
2019-02-15T14:52:34.425Z,102536.74
2019-02-15T14:53:41.132Z,102531.58
2019-02-15T14:54:48.150Z,102529.88
2019-02-15T14:55:55.140Z,102535.84
2019-02-15T14:57:01.819Z,102533.23
2019-02-15T14:58:08.535Z,102528.09
2019-02-15T14:59:15.560Z,102529.39
2019-02-15T15:00:22.596Z,102525.55
2019-02-15T15:01:30.717Z,102523.42
2019-02-15T15:02:37.437Z,102526.84
2019-02-15T15:03:44.099Z,102531.65
2019-02-15T15:04:50.825Z,102526.88
2019-02-15T15:05:57.898Z,102523.42
2019-02-15T15:07:04.727Z,102522.51
2019-02-15T15:08:11.424Z,102516.16
2019-02-15T15:09:18.465Z,102520.89
2019-02-15T15:10:25.718Z,102516.63
2019-02-15T15:11:33.081Z,102511.39
2019-02-15T15:12:40.215Z,102513.95
2019-02-15T15:13:47.160Z,102514.39
2019-02-15T15:14:53.896Z,102513.58
2019-02-15T15:16:00.797Z,102508.77
2019-02-15T15:17:07.578Z,102509.16
2019-02-15T15:18:14.272Z,102509.23
2019-02-15T15:19:21.781Z,102505.41
2019-02-15T15:20:28.479Z,102502.06
2019-02-15T15:21:35.362Z,102505.89
2019-02-15T15:22:42.163Z,102502.02
2019-02-15T15:23:49.256Z,102496.84
2019-02-15T15:24:56.125Z,102498.13
2019-02-15T15:26:11.580Z,102497.75
2019-02-15T15:27:11.259Z,102498.25
2019-02-15T15:28:18.621Z,102494.42
2019-02-15T15:29:25.336Z,102490.97
2019-02-15T15:30:32.108Z,102488.34
2019-02-15T15:31:38.916Z,102487.91
2019-02-15T15:32:45.848Z,102485.74
2019-02-15T15:33:52.660Z,102484.05
2019-02-15T15:35:00.292Z,102483.30
2019-02-15T15:36:07.325Z,102481.59
2019-02-15T15:37:16.534Z,102480.70
2019-02-15T15:38:23.127Z,102476.82
2019-02-15T15:39:30.150Z,102472.12
2019-02-15T15:40:36.860Z,102473.89
2019-02-15T15:41:43.832Z,102470.48
2019-02-15T15:42:50.673Z,102467.11
2019-02-15T15:43:57.660Z,102467.13
2019-02-15T15:45:04.841Z,102463.72
2019-02-15T15:46:11.922Z,102465.86
2019-02-15T15:47:18.764Z,102463.28
2019-02-15T15:48:25.628Z,102462.89
2019-02-15T15:49:32.332Z,102456.09
2019-02-15T15:50:40.186Z,102457.41
2019-02-15T15:51:47.088Z,102458.31
2019-02-15T15:52:53.863Z,102457.90
2019-02-15T15:54:04.365Z,102456.20
2019-02-15T15:55:11.951Z,102451.06
2019-02-15T15:56:19.003Z,102454.11
2019-02-15T15:57:27.271Z,102450.72
2019-02-15T15:58:34.007Z,102450.72
2019-02-15T15:59:40.732Z,102443.45
2019-02-15T16:00:47.457Z,102448.19
2019-02-15T16:01:54.387Z,102447.78
2019-02-15T16:03:01.285Z,102445.22
2019-02-15T16:04:08.010Z,102438.36
2019-02-15T16:05:14.783Z,102437.98
2019-02-15T16:06:24.304Z,102440.98
2019-02-15T16:07:29.868Z,102433.30
2019-02-15T16:08:36.828Z,102436.36
2019-02-15T16:09:43.495Z,102441.97
2019-02-15T16:10:50.637Z,102436.84
2019-02-15T16:11:58.205Z,102435.66
2019-02-15T16:13:05.429Z,102438.66
2019-02-15T16:14:12.127Z,102438.22
2019-02-15T16:15:19.158Z,102438.66
2019-02-15T16:16:26.117Z,102434.82
2019-02-15T16:17:32.870Z,102437.02
2019-02-15T16:18:39.946Z,102440.02
2019-02-15T16:19:49.150Z,102431.05
2019-02-15T16:20:55.076Z,102433.64
2019-02-15T16:22:02.190Z,102431.92
2019-02-15T16:23:08.890Z,102426.80
2019-02-15T16:24:16.018Z,102431.95
2019-02-15T16:25:22.755Z,102434.16
2019-02-15T16:26:29.417Z,102426.46
2019-02-15T16:27:36.189Z,102427.77
2019-02-15T16:28:42.920Z,102423.92
2019-02-15T16:29:49.917Z,102426.11
2019-02-15T16:30:56.615Z,102426.56
2019-02-15T16:32:03.661Z,102429.61
2019-02-15T16:33:10.680Z,102430.06
2019-02-15T16:34:17.956Z,102424.92
2019-02-15T16:35:25.104Z,102424.09
2019-02-15T16:36:31.867Z,102427.97
2019-02-15T16:37:38.887Z,102420.33
2019-02-15T16:38:45.619Z,102421.61
2019-02-15T16:39:52.910Z,102423.36
2019-02-15T16:40:59.640Z,102422.54
2019-02-15T16:42:06.403Z,102425.97
2019-02-15T16:43:13.225Z,102429.90
2019-02-15T16:44:19.971Z,102431.21
2019-02-15T16:45:29.698Z,102430.42
2019-02-15T16:46:37.101Z,102429.16
2019-02-15T16:47:44.238Z,102436.05
2019-02-15T16:48:50.922Z,102430.98